Time;durP1;ratioP1;P1;durP2;ratioP2;P2;SDS_P1;SDS_P2;PMS_P1;PMS_P2;Temp;Humidity;BMP_temperature;BMP_pressure;BME280_temperature;BME280_humidity;BME280_pressure;Samples;Min_cycle;Max_cycle;Signal;HPM_P1;HPM_P2
2021/12/08 00:00:59;;;;;;;53.70;36.10;;;-7.20;99.90;-8.70;100199;;;;582235;243;24046;-78
2021/12/08 00:03:28;;;;;;;52.90;35.63;;;-7.20;99.90;-8.70;100181;;;;570919;247;24121;-76
2021/12/08 00:05:56;;;;;;;56.10;35.13;;;-7.20;99.90;-8.60;100183;;;;581079;243;24066;-78
2021/12/08 00:08:27;;;;;;;55.23;36.20;;;-7.20;99.90;-8.70;100175;;;;576435;247;24067;-77
2021/12/08 00:13:23;;;;;;;56.60;37.73;;;-7.30;99.90;-8.90;100187;;;;567111;242;24053;-76
2021/12/08 00:15:49;;;;;;;54.00;35.57;;;-7.40;99.90;-8.80;100179;;;;582273;242;24054;-77
2021/12/08 00:18:22;;;;;;;55.40;38.63;;;-7.40;99.90;-8.90;100177;;;;579408;247;24096;-79
2021/12/08 00:20:48;;;;;;;59.77;38.13;;;-7.50;99.90;-8.90;100167;;;;587887;243;24120;-77
2021/12/08 00:23:17;;;;;;;57.07;37.57;;;-7.50;99.90;-8.90;100168;;;;582320;243;24100;-76
2021/12/08 00:25:46;;;;;;;53.37;35.30;;;-7.50;99.90;-9.00;100178;;;;570311;247;24124;-77
2021/12/08 00:28:14;;;;;;;60.80;37.63;;;-7.60;99.90;-9.00;100177;;;;581334;242;24058;-77
2021/12/08 00:30:42;;;;;;;60.90;38.03;;;-7.60;99.90;-9.10;100182;;;;592789;242;24112;-77
2021/12/08 00:33:10;;;;;;;59.93;38.17;;;-7.60;99.90;-9.00;100181;;;;571021;246;24130;-76
2021/12/08 00:35:38;;;;;;;63.13;38.70;;;-7.60;99.90;-9.10;100185;;;;581824;246;24203;-77
2021/12/08 00:38:06;;;;;;;60.67;38.37;;;-7.60;99.90;-9.10;100187;;;;572027;247;24126;-78
2021/12/08 00:40:37;;;;;;;61.83;38.33;;;-7.60;99.90;-9.10;100176;;;;572670;247;24090;-79
2021/12/08 00:43:02;;;;;;;61.57;39.80;;;-7.60;99.90;-9.10;100176;;;;575971;247;24083;-80
2021/12/08 00:45:33;;;;;;;59.67;37.57;;;-7.60;99.90;-9.10;100176;;;;583516;242;24050;-77
2021/12/08 00:48:02;;;;;;;58.93;39.30;;;-7.60;99.90;-9.10;100172;;;;572449;247;24118;-77
2021/12/08 00:50:26;;;;;;;66.07;41.03;;;-7.60;99.90;-9.00;100164;;;;572023;247;24121;-77
2021/12/08 00:52:57;;;;;;;60.93;37.60;;;-7.60;99.90;-9.00;100172;;;;570334;247;24114;-77
2021/12/08 00:55:22;;;;;;;62.50;39.47;;;-7.60;99.90;-9.00;100179;;;;592805;242;25081;-76
2021/12/08 00:57:53;;;;;;;66.53;40.83;;;-7.50;99.90;-9.00;100155;;;;572807;246;24098;-76
2021/12/08 01:00:18;;;;;;;73.20;41.00;;;-7.50;99.90;-9.00;100167;;;;580871;247;24134;-79
2021/12/08 01:02:46;;;;;;;70.47;42.10;;;-7.50;99.90;-8.90;100157;;;;572977;247;24081;-80
2021/12/08 01:05:14;;;;;;;74.30;41.93;;;-7.50;99.90;-8.90;100165;;;;588106;242;24130;-78
2021/12/08 01:07:44;;;;;;;72.90;41.90;;;-7.40;99.90;-8.90;100147;;;;572329;246;24062;-79
2021/12/08 01:10:10;;;;;;;80.40;44.60;;;-7.40;99.90;-8.90;100152;;;;571894;246;24109;-77
2021/12/08 01:12:38;;;;;;;77.07;43.23;;;-7.40;99.90;-8.90;100147;;;;579886;246;24130;-78
2021/12/08 01:15:07;;;;;;;83.67;45.10;;;-7.40;99.90;-8.80;100147;;;;581229;247;24073;-76
2021/12/08 01:17:37;;;;;;;81.83;47.07;;;-7.40;99.90;-8.80;100145;;;;572158;247;24092;-77
2021/12/08 01:20:03;;;;;;;89.90;46.73;;;-7.40;99.90;-8.70;100161;;;;584069;242;24057;-79
2021/12/08 01:22:31;;;;;;;93.73;45.60;;;-7.30;99.90;-8.70;100156;;;;584211;242;24053;-80
2021/12/08 01:24:59;;;;;;;93.77;45.50;;;-7.30;99.90;-8.70;100159;;;;573040;246;24137;-81
2021/12/08 01:27:29;;;;;;;89.27;46.80;;;-7.30;99.90;-8.60;100161;;;;572835;247;24094;-81
2021/12/08 01:29:55;;;;;;;87.83;46.37;;;-7.20;99.90;-8.60;100149;;;;581089;247;24113;-81
2021/12/08 01:32:23;;;;;;;92.07;46.50;;;-7.20;99.90;-8.50;100150;;;;572840;247;24079;-82
2021/12/08 01:34:52;;;;;;;89.70;46.63;;;-7.10;99.90;-8.50;100141;;;;572885;247;24140;-80
2021/12/08 01:37:20;;;;;;;84.83;44.40;;;-7.00;99.90;-8.40;100147;;;;572796;247;24144;-83
2021/12/08 01:39:49;;;;;;;86.93;46.60;;;-6.90;99.90;-8.30;100134;;;;572615;247;24105;-82
2021/12/08 01:42:26;;;;;;;91.27;46.73;;;-6.90;99.90;-8.20;100132;;;;583778;242;24135;-83
2021/12/08 01:47:32;;;;;;;96.47;50.07;;;-6.80;99.90;-8.20;100136;;;;572646;247;24080;-82
2021/12/08 01:50:00;;;;;;;100.80;48.30;;;-6.80;99.90;-8.10;100131;;;;572568;247;24117;-82
2021/12/08 01:52:28;;;;;;;96.00;46.77;;;-6.70;99.90;-8.10;100114;;;;572470;247;24126;-82
2021/12/08 01:54:59;;;;;;;102.97;49.53;;;-6.70;99.90;-8.10;100110;;;;572532;247;24085;-81
2021/12/08 01:57:24;;;;;;;92.80;48.93;;;-6.70;99.90;-8.10;100095;;;;592470;241;24067;-82
2021/12/08 01:59:52;;;;;;;87.73;47.70;;;-6.70;99.90;-8.10;100095;;;;572669;246;24063;-81
2021/12/08 02:02:20;;;;;;;104.13;48.63;;;-6.70;99.90;-8.00;100102;;;;575483;246;24138;-82
2021/12/08 02:04:48;;;;;;;89.43;46.47;;;-6.60;99.90;-8.00;100099;;;;575256;246;24066;-82
2021/12/08 02:07:16;;;;;;;86.43;47.43;;;-6.60;99.90;-8.00;100093;;;;575164;246;24139;-80
2021/12/08 02:09:44;;;;;;;90.00;45.43;;;-6.60;99.90;-7.90;100092;;;;575297;246;24058;-84
2021/12/08 02:12:12;;;;;;;84.70;42.80;;;-6.50;99.90;-7.90;100078;;;;575207;246;24097;-82
2021/12/08 02:14:40;;;;;;;84.23;41.67;;;-6.50;99.90;-7.90;100081;;;;575099;246;24136;-82
2021/12/08 02:17:10;;;;;;;73.53;40.90;;;-6.50;99.90;-7.90;100085;;;;576677;245;24067;-82
2021/12/08 02:19:36;;;;;;;85.07;43.83;;;-6.50;99.90;-7.90;100099;;;;572328;245;35192;-82
2021/12/08 02:22:04;;;;;;;81.77;39.77;;;-6.50;99.90;-7.90;100080;;;;577537;245;24073;-82
2021/12/08 02:24:35;;;;;;;80.47;39.83;;;-6.50;99.90;-7.80;100094;;;;577389;245;24101;-82
2021/12/08 02:27:04;;;;;;;75.80;39.67;;;-6.50;99.90;-7.80;100077;;;;577670;245;24062;-81
2021/12/08 02:29:41;;;;;;;69.17;39.57;;;-6.50;99.90;-7.90;100069;;;;564025;249;24094;-82
2021/12/08 02:48:37;;;;;;;63.47;38.13;;;-6.50;99.90;-7.80;100095;;;;567675;249;24075;-80
2021/12/08 02:51:09;;;;;;;64.43;38.03;;;-6.40;99.90;-7.80;100099;;;;567466;249;24080;-79
2021/12/08 02:53:36;;;;;;;65.63;37.30;;;-6.40;99.90;-7.80;100099;;;;567050;249;24088;-79
2021/12/08 02:56:01;;;;;;;59.80;35.57;;;-6.40;99.90;-7.80;100092;;;;575763;249;24092;-78
2021/12/08 02:58:29;;;;;;;63.90;36.67;;;-6.40;99.90;-7.80;100099;;;;567478;249;24086;-82
2021/12/08 03:00:57;;;;;;;59.77;36.37;;;-6.40;99.90;-7.70;100101;;;;567485;249;24109;-80
2021/12/08 03:03:25;;;;;;;59.80;35.80;;;-6.40;99.90;-7.70;100095;;;;563654;250;24089;-78
2021/12/08 03:05:53;;;;;;;65.03;37.43;;;-6.30;99.90;-7.70;100102;;;;564543;249;24104;-81
2021/12/08 03:08:21;;;;;;;62.17;36.50;;;-6.30;99.90;-7.70;100107;;;;566904;249;24185;-77
2021/12/08 03:10:49;;;;;;;59.30;35.07;;;-6.30;99.90;-7.60;100101;;;;583213;240;24147;-80
2021/12/08 03:13:16;;;;;;;61.80;36.10;;;-6.20;99.90;-7.60;100112;;;;563001;249;24308;-79
2021/12/08 03:15:48;;;;;;;59.97;37.13;;;-6.20;99.90;-7.60;100111;;;;564057;249;24088;-80
2021/12/08 03:18:16;;;;;;;57.83;33.90;;;-6.20;99.90;-7.60;100111;;;;563852;250;24124;-78
2021/12/08 03:20:42;;;;;;;54.63;32.10;;;-6.20;99.90;-7.50;100118;;;;573934;244;24095;-81
2021/12/08 03:23:09;;;;;;;55.97;31.93;;;-6.20;99.90;-7.50;100112;;;;567211;249;24101;-77
2021/12/08 03:25:40;;;;;;;50.80;30.33;;;-6.20;99.90;-7.50;100118;;;;562854;249;24100;-75
2021/12/08 03:28:13;;;;;;;51.70;31.37;;;-6.00;99.90;-7.40;100127;;;;566807;249;24105;-77
2021/12/08 03:30:39;;;;;;;50.27;28.97;;;-6.00;99.90;-7.40;100114;;;;562545;249;24122;-79
2021/12/08 03:33:02;;;;;;;49.83;29.00;;;-5.90;99.90;-7.30;100114;;;;563602;249;25209;-80
2021/12/08 03:35:31;;;;;;;50.13;29.53;;;-5.90;99.90;-7.30;100117;;;;566959;249;24148;-76
2021/12/08 03:37:59;;;;;;;48.83;29.27;;;-5.90;99.90;-7.20;100119;;;;567155;249;24191;-79
2021/12/08 03:40:27;;;;;;;48.27;29.07;;;-5.90;99.90;-7.20;100130;;;;567192;249;24281;-78
2021/12/08 03:42:55;;;;;;;50.60;29.40;;;-5.80;99.90;-7.20;100130;;;;576731;247;24096;-78
2021/12/08 03:45:26;;;;;;;48.87;29.10;;;-5.80;99.90;-7.20;100131;;;;564401;249;24131;-77
2021/12/08 03:48:01;;;;;;;48.37;28.43;;;-5.80;99.90;-7.20;100127;;;;567059;252;24127;-78
2021/12/08 03:50:22;;;;;;;48.97;28.57;;;-5.80;99.90;-7.20;100134;;;;560507;252;24167;-78
2021/12/08 03:52:51;;;;;;;49.23;28.60;;;-5.80;99.90;-7.20;100134;;;;557783;252;25187;-79
2021/12/08 03:55:19;;;;;;;47.47;26.73;;;-5.70;99.90;-7.10;100130;;;;563598;252;35610;-76
2021/12/08 03:57:48;;;;;;;41.03;19.95;;;-5.70;99.90;-7.10;100126;;;;552985;252;35473;-73
2021/12/08 04:00:19;;;;;;;42.97;23.47;;;-5.70;99.90;-7.10;100132;;;;557781;252;24110;-76
2021/12/08 04:02:47;;;;;;;45.67;27.37;;;-5.70;99.90;-7.10;100127;;;;560753;252;24134;-76
2021/12/08 04:05:20;;;;;;;43.43;25.47;;;-5.70;99.90;-7.10;100121;;;;559971;252;24174;-76
2021/12/08 04:07:45;;;;;;;45.33;24.80;;;-5.70;99.90;-7.10;100126;;;;559185;252;24177;-76
2021/12/08 04:10:18;;;;;;;51.40;27.03;;;-5.70;99.90;-7.10;100118;;;;557260;252;24132;-78
2021/12/08 04:12:38;;;;;;;51.07;28.20;;;-5.70;99.90;-7.10;100113;;;;558796;252;24168;-75
2021/12/08 04:15:06;;;;;;;49.30;29.53;;;-5.70;99.90;-7.20;100115;;;;557205;252;25249;-75
2021/12/08 04:17:34;;;;;;;45.37;29.27;;;-5.80;99.90;-7.30;100094;;;;573035;247;24106;-77
2021/12/08 04:20:02;;;;;;;45.13;29.30;;;-5.80;99.90;-7.30;100112;;;;563001;250;24224;-76
2021/12/08 04:22:30;;;;;;;45.80;29.53;;;-5.90;99.90;-7.30;100113;;;;566138;249;25627;-75
2021/12/08 04:24:58;;;;;;;50.90;30.00;;;-5.90;99.90;-7.40;100113;;;;563000;249;25135;-76
2021/12/08 04:27:29;;;;;;;46.17;29.67;;;-6.00;99.90;-7.40;100098;;;;564396;244;24078;-76
2021/12/08 04:29:57;;;;;;;50.20;29.63;;;-6.00;99.90;-7.40;100106;;;;564055;249;24090;-76
2021/12/08 04:32:25;;;;;;;45.63;28.97;;;-6.00;99.90;-7.40;100109;;;;566878;249;24097;-74
2021/12/08 04:34:53;;;;;;;46.63;27.73;;;-6.10;99.90;-7.40;100106;;;;564245;249;24135;-76
2021/12/08 04:37:25;;;;;;;46.30;28.03;;;-6.10;99.90;-7.50;100105;;;;563136;250;24176;-77
2021/12/08 04:39:58;;;;;;;43.23;26.87;;;-6.10;99.90;-7.50;100113;;;;564356;249;24090;-76
2021/12/08 04:42:24;;;;;;;44.80;27.37;;;-6.10;99.90;-7.50;100120;;;;562776;249;24149;-77
2021/12/08 04:44:51;;;;;;;46.03;26.90;;;-6.10;99.90;-7.50;100115;;;;566799;249;24142;-77
2021/12/08 04:47:32;;;;;;;38.03;23.07;;;-6.20;99.90;-7.60;100104;;;;567137;248;24201;-79
2021/12/08 04:52:52;;;;;;;41.27;26.53;;;-6.30;99.90;-7.70;100107;;;;575974;249;24082;-76
2021/12/08 05:08:22;;;;;;;40.03;26.30;;;-6.40;99.90;-7.70;100093;;;;576109;249;24084;-75
2021/12/08 05:10:47;;;;;;;42.93;26.87;;;-6.30;99.90;-7.70;100097;;;;567561;249;24185;-76
2021/12/08 05:13:18;;;;;;;41.90;25.93;;;-6.30;99.90;-7.60;100087;;;;563514;249;24098;-77
2021/12/08 05:15:44;;;;;;;43.07;24.47;;;-6.30;99.90;-7.70;100078;;;;564807;250;24185;-77
2021/12/08 05:18:17;;;;;;;36.67;26.27;;;-6.30;99.90;-7.70;100076;;;;567983;248;24112;-77
2021/12/08 05:21:06;;;;;;;40.93;25.57;;;-6.30;99.90;-7.60;100081;;;;565277;250;24206;-76
2021/12/08 05:23:34;;;;;;;41.33;26.60;;;-6.30;99.90;-7.60;100073;;;;577764;249;24170;-81
2021/12/08 05:26:02;;;;;;;40.73;27.17;;;-6.30;99.90;-7.70;100074;;;;569049;249;24122;-82
2021/12/08 05:28:30;;;;;;;40.90;26.20;;;-6.30;99.90;-7.70;100079;;;;568498;249;24109;-81
2021/12/08 05:31:03;;;;;;;41.33;26.37;;;-6.30;99.90;-7.70;100076;;;;568710;248;24059;-82
2021/12/08 05:33:31;;;;;;;43.70;25.63;;;-6.30;99.90;-7.70;100083;;;;567438;249;24103;-80
2021/12/08 05:35:59;;;;;;;38.23;27.43;;;-6.30;99.90;-7.70;100086;;;;576355;248;24081;-80
2021/12/08 05:38:31;;;;;;;36.67;24.67;;;-6.30;99.90;-7.70;100077;;;;567557;249;24080;-76
2021/12/08 05:40:58;;;;;;;39.53;24.30;;;-6.30;99.90;-7.70;100068;;;;567826;249;24076;-82
2021/12/08 05:43:26;;;;;;;32.73;20.37;;;-6.30;99.90;-7.70;100080;;;;567903;247;24098;-82
2021/12/08 05:45:54;;;;;;;36.73;24.40;;;-6.30;99.90;-7.80;100074;;;;555774;253;24115;-82
2021/12/08 05:48:22;;;;;;;35.80;22.63;;;-6.40;99.90;-7.70;100073;;;;553917;254;24120;-82
2021/12/08 05:50:53;;;;;;;36.33;24.10;;;-6.40;99.90;-7.80;100056;;;;552009;256;24118;-79
2021/12/08 05:53:21;;;;;;;36.50;23.67;;;-6.40;99.90;-7.80;100059;;;;553129;255;24112;-82
2021/12/08 05:55:49;;;;;;;38.40;25.43;;;-6.40;99.90;-7.80;100049;;;;563349;251;24126;-76
2021/12/08 05:58:16;;;;;;;39.50;26.53;;;-6.40;99.90;-7.80;100062;;;;571749;251;24104;-77
2021/12/08 06:00:47;;;;;;;39.97;26.33;;;-6.40;99.90;-7.90;100056;;;;563347;251;24195;-76
2021/12/08 06:03:16;;;;;;;39.07;23.47;;;-6.50;99.90;-7.80;100063;;;;563320;251;24103;-76
2021/12/08 06:05:45;;;;;;;40.37;24.97;;;-6.50;99.90;-7.90;100056;;;;562785;250;24102;-75
2021/12/08 06:08:15;;;;;;;42.93;27.37;;;-6.50;99.90;-7.90;100059;;;;572541;250;24134;-77
2021/12/08 06:10:43;;;;;;;40.10;26.17;;;-6.50;99.90;-8.00;100041;;;;564031;250;24185;-76
2021/12/08 06:13:08;;;;;;;41.30;26.00;;;-6.60;99.90;-8.00;100046;;;;578661;245;24071;-76
2021/12/08 06:15:39;;;;;;;42.13;25.90;;;-6.60;99.90;-8.00;100038;;;;573300;246;24189;-76
2021/12/08 06:18:04;;;;;;;40.73;26.70;;;-6.70;99.90;-8.00;100045;;;;581519;242;24118;-76
2021/12/08 06:20:35;;;;;;;36.03;25.87;;;-6.60;99.90;-8.00;100053;;;;573194;246;24100;-78
2021/12/08 06:23:00;;;;;;;39.90;26.77;;;-6.70;99.90;-8.00;100050;;;;578041;246;24104;-79
2021/12/08 06:25:28;;;;;;;35.73;25.83;;;-6.70;99.90;-8.00;100043;;;;581740;247;24100;-77
2021/12/08 06:27:56;;;;;;;39.83;25.40;;;-6.60;99.90;-8.00;100045;;;;571447;247;24139;-77
2021/12/08 06:30:24;;;;;;;35.93;24.40;;;-6.60;99.90;-7.90;100056;;;;579693;244;24060;-76
2021/12/08 06:32:52;;;;;;;35.37;24.50;;;-6.60;99.90;-7.90;100052;;;;564822;247;24161;-77
2021/12/08 06:35:20;;;;;;;39.22;24.95;;;-6.50;99.90;-7.80;100079;;;;565436;248;35335;-77
2021/12/08 06:37:48;;;;;;;31.77;21.10;;;-6.50;99.90;-7.80;100077;;;;569838;248;24140;-76
2021/12/08 06:40:30;;;;;;;33.93;22.87;;;-6.40;99.90;-7.80;100083;;;;570484;248;24108;-76
2021/12/08 06:42:58;;;;;;;29.73;20.63;;;-6.40;99.90;-7.80;100085;;;;576378;248;24108;-78
2021/12/08 06:45:26;;;;;;;30.10;20.70;;;-6.40;99.90;-7.80;100088;;;;569932;248;24135;-77
2021/12/08 06:47:54;;;;;;;30.93;22.07;;;-6.40;99.90;-7.80;100082;;;;569557;248;24090;-76
2021/12/08 06:50:27;;;;;;;30.27;21.33;;;-6.50;99.90;-7.80;100074;;;;569943;248;24092;-77
2021/12/08 06:52:55;;;;;;;32.17;21.73;;;-6.40;99.90;-7.80;100078;;;;574853;248;25154;-75
2021/12/08 06:55:29;;;;;;;31.67;22.20;;;-6.40;99.90;-7.80;100078;;;;567718;248;25144;-75
2021/12/08 06:58:12;;;;;;;31.00;19.93;;;-6.40;99.90;-7.80;100078;;;;565242;248;24168;-76
2021/12/08 07:01:01;;;;;;;32.13;21.70;;;-6.50;99.90;-7.80;100091;;;;578758;247;24104;-76
2021/12/08 07:03:47;;;;;;;28.97;20.20;;;-6.50;99.90;-7.80;100097;;;;574966;248;24158;-78
2021/12/08 07:06:05;;;;;;;30.07;20.97;;;-6.50;99.90;-7.80;100100;;;;570136;248;24114;-76
2021/12/08 07:08:21;;;;;;;31.53;20.37;;;-6.50;99.90;-7.80;100101;;;;567677;248;24087;-78
2021/12/08 07:10:49;;;;;;;29.80;20.60;;;-6.40;99.90;-7.80;100107;;;;570588;248;24089;-76
2021/12/08 07:13:17;;;;;;;33.67;22.73;;;-6.40;99.90;-7.80;100100;;;;570609;248;24084;-76
2021/12/08 07:15:51;;;;;;;30.97;22.60;;;-6.40;99.90;-7.80;100103;;;;570324;248;24139;-74
2021/12/08 07:18:25;;;;;;;27.23;20.33;;;-6.40;99.90;-7.80;100098;;;;571525;247;27308;-75
2021/12/08 07:20:53;;;;;;;31.87;23.43;;;-6.40;99.90;-7.80;100092;;;;570872;247;24079;-76
2021/12/08 07:23:36;;;;;;;32.57;23.17;;;-6.40;99.90;-7.80;100092;;;;571089;247;24085;-76
2021/12/08 07:26:01;;;;;;;29.47;22.20;;;-6.40;99.90;-7.70;100089;;;;571227;247;24094;-76
2021/12/08 07:28:29;;;;;;;35.03;22.83;;;-6.40;99.90;-7.70;100097;;;;571003;248;24149;-76
2021/12/08 07:30:59;;;;;;;35.70;22.90;;;-6.30;99.90;-7.60;100100;;;;570980;248;25122;-81
2021/12/08 07:33:31;;;;;;;31.83;23.03;;;-6.30;99.90;-7.60;100092;;;;566292;248;24137;-82
2021/12/08 07:35:55;;;;;;;33.10;22.83;;;-6.30;99.90;-7.60;100090;;;;571256;248;24113;-81
2021/12/08 07:38:23;;;;;;;32.90;23.40;;;-6.30;99.90;-7.70;100085;;;;570605;248;24094;-77
2021/12/08 07:40:54;;;;;;;34.17;24.00;;;-6.30;99.90;-7.60;100075;;;;570449;248;24134;-81
2021/12/08 07:43:22;;;;;;;35.47;23.97;;;-6.30;99.90;-7.60;100059;;;;570638;248;24084;-80
2021/12/08 07:45:52;;;;;;;33.37;24.83;;;-6.20;99.90;-7.60;100079;;;;578831;248;24089;-77
2021/12/08 07:48:23;;;;;;;31.80;23.10;;;-6.20;99.90;-7.60;100062;;;;564434;248;24257;-79
2021/12/08 07:50:53;;;;;;;28.93;20.23;;;-6.20;99.90;-7.50;100060;;;;567005;248;24095;-81
2021/12/08 07:53:21;;;;;;;26.60;19.77;;;-6.20;99.90;-7.60;100055;;;;574279;245;24096;-81
2021/12/08 07:55:49;;;;;;;27.20;20.63;;;-6.20;99.90;-7.60;100063;;;;579251;244;24063;-81
2021/12/08 07:58:17;;;;;;;25.23;19.07;;;-6.20;99.90;-7.60;100062;;;;564448;250;24158;-81
2021/12/08 08:00:57;;;;;;;26.63;19.50;;;-6.20;99.90;-7.70;100045;;;;565198;248;24107;-80
2021/12/08 08:03:25;;;;;;;28.93;19.67;;;-6.30;99.90;-7.60;100052;;;;569879;248;24099;-79
2021/12/08 08:05:53;;;;;;;29.30;21.03;;;-6.30;99.90;-7.70;100043;;;;565922;245;24135;-81
2021/12/08 08:08:24;;;;;;;29.20;20.70;;;-6.30;99.90;-7.70;100055;;;;567033;249;24099;-78
2021/12/08 08:10:49;;;;;;;33.90;23.03;;;-6.30;99.90;-7.80;100056;;;;563607;249;24109;-81
2021/12/08 08:13:17;;;;;;;30.13;21.87;;;-6.40;99.90;-7.80;100055;;;;566333;250;24099;-83
2021/12/08 08:15:46;;;;;;;31.53;22.33;;;-6.40;99.90;-7.80;100062;;;;566113;250;24190;-84
2021/12/08 08:18:14;;;;;;;31.63;22.90;;;-6.40;99.90;-7.80;100057;;;;566135;250;24114;-76
2021/12/08 08:20:42;;;;;;;30.93;22.83;;;-6.40;99.90;-7.80;100064;;;;566392;250;25119;-81
2021/12/08 08:23:11;;;;;;;31.43;21.50;;;-6.40;99.90;-7.80;100058;;;;565960;250;24113;-77
2021/12/08 08:25:37;;;;;;;32.23;21.57;;;-6.50;99.90;-7.90;100062;;;;566978;250;24131;-76
2021/12/08 08:28:06;;;;;;;30.53;22.57;;;-6.50;99.90;-7.90;100058;;;;565307;248;24178;-78
2021/12/08 08:30:34;;;;;;;32.67;22.23;;;-6.50;99.90;-7.90;100056;;;;567357;249;24139;-77
2021/12/08 08:33:03;;;;;;;28.13;21.60;;;-6.50;99.90;-7.90;100069;;;;566809;249;24149;-78
2021/12/08 08:35:34;;;;;;;29.63;19.03;;;-6.50;99.90;-7.90;100054;;;;575409;249;24137;-77
2021/12/08 08:38:03;;;;;;;30.07;20.40;;;-6.60;99.90;-8.00;100061;;;;566411;250;24084;-76
2021/12/08 08:40:37;;;;;;;32.90;23.87;;;-6.70;99.90;-8.10;100047;;;;566261;250;24093;-78
2021/12/08 08:43:05;;;;;;;30.83;22.77;;;-6.70;99.90;-8.10;100053;;;;566538;250;24108;-76
2021/12/08 08:45:39;;;;;;;37.77;25.37;;;-6.70;99.90;-8.10;100040;;;;566464;250;24143;-77
2021/12/08 08:48:09;;;;;;;39.73;28.40;;;-6.70;99.90;-8.20;100047;;;;565989;250;24096;-76
2021/12/08 08:50:55;;;;;;;38.47;26.83;;;-6.80;99.90;-8.20;100045;;;;562769;250;24120;-76
2021/12/08 08:53:25;;;;;;;40.77;28.83;;;-6.90;99.90;-8.30;100044;;;;565880;250;24109;-77
2021/12/08 08:55:58;;;;;;;44.07;28.83;;;-6.90;99.90;-8.20;100052;;;;565792;250;24092;-76
2021/12/08 08:58:26;;;;;;;45.57;30.47;;;-6.90;99.90;-8.30;100033;;;;565893;250;24121;-76
2021/12/08 09:00:54;;;;;;;43.10;27.50;;;-6.90;99.90;-8.30;100040;;;;565758;250;24142;-78
2021/12/08 09:03:22;;;;;;;43.33;30.23;;;-6.90;99.90;-8.40;100041;;;;565701;250;24117;-76
2021/12/08 09:05:52;;;;;;;33.90;23.00;;;-7.00;99.90;-8.40;100040;;;;565618;250;24096;-77
2021/12/08 09:08:21;;;;;;;42.87;28.57;;;-7.00;99.90;-8.50;100035;;;;565065;250;24156;-75
2021/12/08 09:11:06;;;;;;;41.93;27.27;;;-7.10;99.90;-8.40;100053;;;;565455;250;24148;-76
2021/12/08 09:13:31;;;;;;;41.40;29.67;;;-7.10;99.90;-8.50;100055;;;;574304;250;24087;-75
2021/12/08 09:15:59;;;;;;;44.13;26.27;;;-7.10;99.90;-8.40;100053;;;;565632;250;24136;-77
2021/12/08 09:18:29;;;;;;;47.20;30.73;;;-7.00;99.90;-8.50;100034;;;;565771;250;24132;-76
2021/12/08 09:21:09;;;;;;;44.20;28.50;;;-7.10;99.90;-8.50;100023;;;;565714;250;24097;-76
2021/12/08 09:23:31;;;;;;;43.13;30.60;;;-7.10;99.90;-8.50;100030;;;;565433;250;24088;-76
2021/12/08 09:25:59;;;;;;;45.83;30.73;;;-7.10;99.90;-8.40;100038;;;;565075;250;24137;-74
2021/12/08 09:28:29;;;;;;;48.00;31.40;;;-7.00;99.90;-8.30;100036;;;;565493;250;24160;-76
2021/12/08 09:31:07;;;;;;;45.27;29.30;;;-7.00;99.90;-8.30;100027;;;;565766;250;24089;-76
2021/12/08 09:33:44;;;;;;;45.63;30.97;;;-6.90;99.90;-8.40;100031;;;;563297;250;25138;-77
2021/12/08 09:36:12;;;;;;;46.30;30.10;;;-6.90;99.90;-8.30;100029;;;;560740;250;35337;-76
2021/12/08 09:38:45;;;;;;;45.43;29.43;;;-6.90;99.90;-8.40;100036;;;;565723;250;24124;-76
2021/12/08 09:41:18;;;;;;;51.13;33.77;;;-6.90;99.90;-8.40;100028;;;;559742;253;24155;-76
2021/12/08 09:43:52;;;;;;;51.90;35.27;;;-7.00;99.90;-8.40;100034;;;;557939;254;24190;-76
2021/12/08 09:46:32;;;;;;;54.63;36.93;;;-7.00;99.90;-8.50;100028;;;;553418;255;24159;-76
2021/12/08 09:49:02;;;;;;;47.53;31.23;;;-7.10;99.90;-8.50;100027;;;;564202;250;24103;-77
2021/12/08 09:51:28;;;;;;;56.80;35.73;;;-7.10;99.90;-8.50;100011;;;;561872;255;24176;-82
2021/12/08 09:53:59;;;;;;;53.07;33.33;;;-7.10;99.90;-8.60;100006;;;;554480;255;24155;-82
2021/12/08 09:56:24;;;;;;;53.90;33.73;;;-7.10;99.90;-8.50;100013;;;;564228;250;24201;-81
2021/12/08 09:58:53;;;;;;;53.33;33.03;;;-7.10;99.90;-8.50;100009;;;;562665;254;24171;-80
2021/12/08 10:01:21;;;;;;;58.30;36.07;;;-7.10;99.90;-8.40;100007;;;;554426;255;24130;-77
2021/12/08 10:03:50;;;;;;;55.37;34.97;;;-7.10;99.90;-8.40;100006;;;;554225;255;24218;-78
2021/12/08 10:06:18;;;;;;;54.33;35.10;;;-7.10;99.90;-8.50;100005;;;;576398;246;24068;-77
2021/12/08 10:08:46;;;;;;;55.00;34.57;;;-7.10;99.90;-8.50;100019;;;;592260;242;24098;-76
2021/12/08 10:11:14;;;;;;;54.23;35.23;;;-7.10;99.90;-8.50;100012;;;;572543;246;24062;-77
2021/12/08 10:13:44;;;;;;;57.90;35.97;;;-7.10;99.90;-8.50;100012;;;;581115;247;24104;-77
2021/12/08 10:16:10;;;;;;;54.07;34.90;;;-7.10;99.90;-8.50;100012;;;;572347;247;24092;-78
2021/12/08 10:18:37;;;;;;;60.27;36.03;;;-7.10;99.90;-8.50;100010;;;;572329;247;24109;-76
2021/12/08 10:21:09;;;;;;;58.47;37.90;;;-7.10;99.90;-8.50;99997;;;;571921;247;24086;-78
2021/12/08 10:23:40;;;;;;;58.00;37.27;;;-7.10;99.90;-8.50;99990;;;;591601;242;24090;-77
2021/12/08 10:26:14;;;;;;;57.00;35.33;;;-7.10;99.90;-8.50;99993;;;;591867;242;24059;-76
2021/12/08 10:28:47;;;;;;;57.07;35.03;;;-7.10;99.90;-8.50;99998;;;;591271;242;24096;-78
2021/12/08 10:31:18;;;;;;;52.23;33.03;;;-7.20;99.90;-8.60;99992;;;;582977;242;24062;-76
2021/12/08 10:34:02;;;;;;;62.10;39.43;;;-7.20;99.90;-8.70;99987;;;;572233;246;24096;-77
2021/12/08 10:36:46;;;;;;;66.37;42.07;;;-7.20;99.90;-8.70;99986;;;;575127;246;24082;-76
2021/12/08 10:39:37;;;;;;;60.23;39.70;;;-7.30;99.90;-8.60;99993;;;;575537;246;24150;-79
2021/12/08 10:42:14;;;;;;;52.93;35.10;;;-7.20;99.90;-8.50;99972;;;;575085;246;24113;-75
2021/12/08 10:44:56;;;;;;;61.57;33.93;;;-7.10;99.90;-8.50;99973;;;;572300;247;24126;-76
2021/12/08 10:47:30;;;;;;;52.07;33.53;;;-7.10;99.90;-8.50;99971;;;;572586;247;24205;-76
2021/12/08 10:55:37;;;;;;;47.83;32.33;;;-7.20;99.90;-8.60;99979;;;;576624;245;24054;-76
2021/12/08 10:58:04;;;;;;;49.63;32.97;;;-7.20;99.90;-8.60;99976;;;;584372;245;24126;-76
2021/12/08 11:00:30;;;;;;;49.70;31.83;;;-7.20;99.90;-8.70;99976;;;;573205;246;25289;-78
2021/12/08 11:03:03;;;;;;;51.80;33.33;;;-7.30;99.90;-8.70;99968;;;;571691;245;35112;-77
2021/12/08 11:05:37;;;;;;;41.53;25.20;;;-7.30;99.90;-8.70;99968;;;;575589;245;24096;-79
2021/12/08 11:08:11;;;;;;;53.17;31.60;;;-7.30;99.90;-8.70;99975;;;;575707;245;24134;-79
2021/12/08 11:10:50;;;;;;;54.90;35.73;;;-7.30;99.90;-8.80;99959;;;;575598;246;24071;-80
2021/12/08 11:13:18;;;;;;;46.30;29.97;;;-7.30;99.90;-8.80;99962;;;;575631;246;24087;-78
2021/12/08 11:15:49;;;;;;;54.40;35.60;;;-7.40;99.90;-8.90;99950;;;;570834;246;24097;-77
2021/12/08 11:18:21;;;;;;;48.37;33.23;;;-7.40;99.90;-8.80;99956;;;;575884;246;25092;-78
2021/12/08 11:20:52;;;;;;;45.37;29.60;;;-7.30;99.90;-8.70;99962;;;;571147;246;25097;-78
2021/12/08 11:23:28;;;;;;;44.10;29.00;;;-7.30;99.90;-8.70;99949;;;;571102;246;24094;-81
2021/12/08 11:25:50;;;;;;;45.53;30.80;;;-7.30;99.90;-8.70;99942;;;;570828;246;24114;-78
2021/12/08 11:28:33;;;;;;;52.93;31.47;;;-7.30;99.90;-8.70;99937;;;;584731;246;24055;-76
2021/12/08 11:31:05;;;;;;;48.53;31.50;;;-7.20;99.90;-8.60;99939;;;;576023;246;24123;-78
2021/12/08 11:33:32;;;;;;;49.63;30.83;;;-7.20;99.90;-8.70;99949;;;;571167;246;24156;-78
2021/12/08 11:36:06;;;;;;;46.33;31.33;;;-7.20;99.90;-8.60;99955;;;;585078;246;24153;-76
2021/12/08 11:38:34;;;;;;;49.27;31.93;;;-7.20;99.90;-8.60;99947;;;;572265;245;24114;-78
2021/12/08 11:41:02;;;;;;;51.83;33.53;;;-7.20;99.90;-8.60;99950;;;;584726;242;24092;-77
2021/12/08 11:43:30;;;;;;;46.33;30.97;;;-7.20;99.90;-8.60;99938;;;;582626;242;24144;-77
2021/12/08 11:46:17;;;;;;;49.70;32.13;;;-7.10;99.90;-8.50;99939;;;;584683;242;24063;-78
2021/12/08 11:49:03;;;;;;;50.53;33.87;;;-7.10;99.90;-8.40;99937;;;;584807;242;24049;-78